sensor_id;sensor_type;location;lat;lon;timestamp;pressure;altitude;pressure_sealevel;temperature;humidity
23899;BME280;20544;50.018;20.010;2022-10-31T00:01:40;99190.30;;;12.46;100.00
23899;BME280;20544;50.018;20.010;2022-10-31T00:06:36;99196.19;;;12.41;100.00
23899;BME280;20544;50.018;20.010;2022-10-31T00:09:53;99192.15;;;12.45;100.00
23899;BME280;20544;50.018;20.010;2022-10-31T00:13:11;99195.19;;;12.42;100.00
23899;BME280;20544;50.018;20.010;2022-10-31T00:16:30;99193.27;;;12.36;100.00
23899;BME280;20544;50.018;20.010;2022-10-31T00:23:03;99192.69;;;12.26;100.00
23899;BME280;20544;50.018;20.010;2022-10-31T00:26:20;99194.27;;;12.20;100.00
23899;BME280;20544;50.018;20.010;2022-10-31T00:29:38;99192.67;;;12.11;100.00
23899;BME280;20544;50.018;20.010;2022-10-31T00:32:54;99190.93;;;12.03;100.00
23899;BME280;20544;50.018;20.010;2022-10-31T00:36:13;99189.00;;;11.97;100.00
23899;BME280;20544;50.018;20.010;2022-10-31T00:39:28;99190.06;;;11.88;100.00
23899;BME280;20544;50.018;20.010;2022-10-31T00:42:44;99196.38;;;11.87;100.00
23899;BME280;20544;50.018;20.010;2022-10-31T00:46:00;99195.25;;;11.81;100.00
23899;BME280;20544;50.018;20.010;2022-10-31T00:49:17;99198.16;;;11.71;100.00
23899;BME280;20544;50.018;20.010;2022-10-31T00:52:33;99199.95;;;11.56;100.00
23899;BME280;20544;50.018;20.010;2022-10-31T00:55:50;99202.73;;;11.39;100.00
23899;BME280;20544;50.018;20.010;2022-10-31T00:59:06;99199.83;;;11.26;100.00
23899;BME280;20544;50.018;20.010;2022-10-31T01:02:23;99202.53;;;11.17;100.00
23899;BME280;20544;50.018;20.010;2022-10-31T01:05:40;99205.88;;;11.11;100.00
23899;BME280;20544;50.018;20.010;2022-10-31T01:08:56;99194.15;;;11.06;100.00
23899;BME280;20544;50.018;20.010;2022-10-31T01:12:12;99193.38;;;10.97;100.00
23899;BME280;20544;50.018;20.010;2022-10-31T01:15:30;99192.41;;;10.90;100.00
23899;BME280;20544;50.018;20.010;2022-10-31T01:18:48;99192.28;;;10.83;100.00
23899;BME280;20544;50.018;20.010;2022-10-31T01:22:08;99184.17;;;10.76;100.00
23899;BME280;20544;50.018;20.010;2022-10-31T01:25:25;99195.45;;;10.78;100.00
23899;BME280;20544;50.018;20.010;2022-10-31T01:28:45;99186.83;;;10.76;100.00
23899;BME280;20544;50.018;20.010;2022-10-31T01:32:02;99181.83;;;10.81;100.00
23899;BME280;20544;50.018;20.010;2022-10-31T01:36:55;99180.02;;;10.82;100.00
23899;BME280;20544;50.018;20.010;2022-10-31T01:40:12;99179.50;;;10.87;100.00
23899;BME280;20544;50.018;20.010;2022-10-31T01:43:43;99174.64;;;10.90;100.00
23899;BME280;20544;50.018;20.010;2022-10-31T01:47:03;99172.95;;;10.97;100.00
23899;BME280;20544;50.018;20.010;2022-10-31T01:52:00;99172.25;;;11.04;100.00
23899;BME280;20544;50.018;20.010;2022-10-31T01:55:20;99172.22;;;11.12;100.00
23899;BME280;20544;50.018;20.010;2022-10-31T01:58:39;99168.48;;;11.21;100.00
23899;BME280;20544;50.018;20.010;2022-10-31T02:01:57;99167.78;;;11.27;100.00
23899;BME280;20544;50.018;20.010;2022-10-31T02:08:30;99172.67;;;11.39;100.00
23899;BME280;20544;50.018;20.010;2022-10-31T02:11:48;99176.28;;;11.46;100.00
23899;BME280;20544;50.018;20.010;2022-10-31T02:15:09;99186.86;;;11.54;100.00
23899;BME280;20544;50.018;20.010;2022-10-31T02:18:27;99179.64;;;11.63;100.00
23899;BME280;20544;50.018;20.010;2022-10-31T02:21:47;99181.59;;;11.69;100.00
23899;BME280;20544;50.018;20.010;2022-10-31T02:25:16;99183.87;;;11.72;100.00
23899;BME280;20544;50.018;20.010;2022-10-31T02:29:01;99190.13;;;11.79;100.00
23899;BME280;20544;50.018;20.010;2022-10-31T02:35:49;99192.59;;;11.81;100.00
23899;BME280;20544;50.018;20.010;2022-10-31T02:39:12;99199.56;;;11.82;100.00
23899;BME280;20544;50.018;20.010;2022-10-31T02:42:36;99194.25;;;11.82;100.00
23899;BME280;20544;50.018;20.010;2022-10-31T02:46:00;99199.38;;;11.84;100.00
23899;BME280;20544;50.018;20.010;2022-10-31T02:52:35;99197.75;;;11.83;100.00
23899;BME280;20544;50.018;20.010;2022-10-31T02:55:59;99197.19;;;11.87;100.00
23899;BME280;20544;50.018;20.010;2022-10-31T02:59:19;99199.69;;;11.89;100.00
23899;BME280;20544;50.018;20.010;2022-10-31T03:02:51;99201.16;;;11.91;100.00
23899;BME280;20544;50.018;20.010;2022-10-31T03:06:14;99206.91;;;11.95;100.00
23899;BME280;20544;50.018;20.010;2022-10-31T03:09:40;99198.94;;;11.95;100.00
23899;BME280;20544;50.018;20.010;2022-10-31T03:12:59;99207.76;;;11.95;100.00
23899;BME280;20544;50.018;20.010;2022-10-31T03:16:22;99207.41;;;11.98;100.00
23899;BME280;20544;50.018;20.010;2022-10-31T03:19:42;99203.75;;;12.00;100.00
23899;BME280;20544;50.018;20.010;2022-10-31T03:23:03;99208.88;;;12.01;100.00
23899;BME280;20544;50.018;20.010;2022-10-31T03:26:21;99211.39;;;12.03;100.00
23899;BME280;20544;50.018;20.010;2022-10-31T03:29:42;99206.88;;;12.03;100.00
23899;BME280;20544;50.018;20.010;2022-10-31T03:33:01;99211.20;;;12.04;100.00
23899;BME280;20544;50.018;20.010;2022-10-31T03:36:20;99217.98;;;12.07;100.00
23899;BME280;20544;50.018;20.010;2022-10-31T03:39:39;99214.95;;;12.10;100.00
23899;BME280;20544;50.018;20.010;2022-10-31T03:43:02;99208.16;;;12.07;100.00
23899;BME280;20544;50.018;20.010;2022-10-31T03:46:20;99220.83;;;12.05;100.00
23899;BME280;20544;50.018;20.010;2022-10-31T03:49:38;99216.98;;;12.08;100.00
23899;BME280;20544;50.018;20.010;2022-10-31T03:52:58;99218.45;;;12.10;100.00
23899;BME280;20544;50.018;20.010;2022-10-31T03:56:21;99220.73;;;12.13;100.00
23899;BME280;20544;50.018;20.010;2022-10-31T03:59:42;99225.23;;;12.13;100.00
23899;BME280;20544;50.018;20.010;2022-10-31T04:03:05;99223.58;;;12.12;100.00
23899;BME280;20544;50.018;20.010;2022-10-31T04:06:24;99225.58;;;12.10;100.00
23899;BME280;20544;50.018;20.010;2022-10-31T04:09:44;99225.77;;;12.08;100.00
23899;BME280;20544;50.018;20.010;2022-10-31T04:13:04;99222.02;;;12.03;100.00
23899;BME280;20544;50.018;20.010;2022-10-31T04:16:28;99224.02;;;12.01;100.00
23899;BME280;20544;50.018;20.010;2022-10-31T04:19:44;99224.20;;;11.99;100.00
23899;BME280;20544;50.018;20.010;2022-10-31T04:23:01;99222.55;;;11.98;100.00
23899;BME280;20544;50.018;20.010;2022-10-31T04:26:20;99224.20;;;11.99;100.00
23899;BME280;20544;50.018;20.010;2022-10-31T04:29:37;99225.39;;;11.96;100.00
23899;BME280;20544;50.018;20.010;2022-10-31T04:32:58;99231.02;;;11.93;100.00
23899;BME280;20544;50.018;20.010;2022-10-31T04:36:15;99228.37;;;11.93;100.00
23899;BME280;20544;50.018;20.010;2022-10-31T04:39:31;99233.22;;;11.90;100.00
23899;BME280;20544;50.018;20.010;2022-10-31T04:42:49;99224.77;;;11.86;100.00
23899;BME280;20544;50.018;20.010;2022-10-31T04:46:08;99226.61;;;11.86;100.00
23899;BME280;20544;50.018;20.010;2022-10-31T04:49:25;99223.30;;;11.84;100.00
23899;BME280;20544;50.018;20.010;2022-10-31T04:52:42;99228.61;;;11.84;100.00
23899;BME280;20544;50.018;20.010;2022-10-31T04:56:01;99229.27;;;11.86;100.00
23899;BME280;20544;50.018;20.010;2022-10-31T04:59:20;99231.12;;;11.85;100.00
23899;BME280;20544;50.018;20.010;2022-10-31T05:02:46;99233.30;;;11.81;100.00
23899;BME280;20544;50.018;20.010;2022-10-31T05:07:41;99230.17;;;11.78;100.00
23899;BME280;20544;50.018;20.010;2022-10-31T05:11:01;99230.52;;;11.75;100.00
23899;BME280;20544;50.018;20.010;2022-10-31T05:14:16;99240.67;;;11.71;100.00
23899;BME280;20544;50.018;20.010;2022-10-31T05:17:52;99235.36;;;11.71;100.00
23899;BME280;20544;50.018;20.010;2022-10-31T05:22:50;99244.17;;;11.72;100.00
23899;BME280;20544;50.018;20.010;2022-10-31T05:26:05;99242.22;;;11.65;100.00
23899;BME280;20544;50.018;20.010;2022-10-31T05:29:21;99251.01;;;11.66;100.00
23899;BME280;20544;50.018;20.010;2022-10-31T05:32:42;99249.34;;;11.65;100.00
23899;BME280;20544;50.018;20.010;2022-10-31T05:40:00;99250.90;;;11.59;100.00
23899;BME280;20544;50.018;20.010;2022-10-31T05:43:16;99253.89;;;11.56;100.00
23899;BME280;20544;50.018;20.010;2022-10-31T05:46:33;99260.05;;;11.57;100.00
23899;BME280;20544;50.018;20.010;2022-10-31T05:49:58;99262.71;;;11.57;100.00
23899;BME280;20544;50.018;20.010;2022-10-31T05:53:31;99273.34;;;11.57;100.00
23899;BME280;20544;50.018;20.010;2022-10-31T05:56:49;99275.00;;;11.58;100.00
23899;BME280;20544;50.018;20.010;2022-10-31T06:00:10;99277.17;;;11.54;100.00
23899;BME280;20544;50.018;20.010;2022-10-31T06:06:49;99275.22;;;11.48;100.00
23899;BME280;20544;50.018;20.010;2022-10-31T06:10:13;99280.16;;;11.51;100.00
23899;BME280;20544;50.018;20.010;2022-10-31T06:13:31;99282.82;;;11.51;100.00
23899;BME280;20544;50.018;20.010;2022-10-31T06:16:50;99287.25;;;11.59;100.00
23899;BME280;20544;50.018;20.010;2022-10-31T06:23:40;99295.38;;;11.89;100.00
23899;BME280;20544;50.018;20.010;2022-10-31T06:27:16;99295.55;;;12.10;100.00
23899;BME280;20544;50.018;20.010;2022-10-31T06:30:39;99299.75;;;12.43;100.00
23899;BME280;20544;50.018;20.010;2022-10-31T06:33:56;99305.30;;;12.86;100.00
23899;BME280;20544;50.018;20.010;2022-10-31T06:37:15;99313.23;;;13.31;100.00
23899;BME280;20544;50.018;20.010;2022-10-31T06:40:37;99321.39;;;13.81;100.00
23899;BME280;20544;50.018;20.010;2022-10-31T06:44:02;99329.30;;;14.39;100.00
23899;BME280;20544;50.018;20.010;2022-10-31T06:47:25;99331.28;;;14.87;100.00
23899;BME280;20544;50.018;20.010;2022-10-31T06:50:59;99338.09;;;15.32;100.00
23899;BME280;20544;50.018;20.010;2022-10-31T06:54:31;99334.16;;;15.83;100.00
23899;BME280;20544;50.018;20.010;2022-10-31T06:57:55;99336.47;;;16.13;100.00
23899;BME280;20544;50.018;20.010;2022-10-31T07:01:17;99345.32;;;16.60;100.00
23899;BME280;20544;50.018;20.010;2022-10-31T07:07:54;99355.70;;;17.29;100.00
23899;BME280;20544;50.018;20.010;2022-10-31T07:11:22;99354.45;;;17.32;99.41
23899;BME280;20544;50.018;20.010;2022-10-31T07:14:45;99356.47;;;17.43;99.78
23899;BME280;20544;50.018;20.010;2022-10-31T07:18:12;99357.98;;;17.25;100.00
23899;BME280;20544;50.018;20.010;2022-10-31T07:24:52;99355.80;;;16.95;100.00
23899;BME280;20544;50.018;20.010;2022-10-31T07:28:37;99359.09;;;16.84;100.00
23899;BME280;20544;50.018;20.010;2022-10-31T07:32:06;99353.55;;;16.52;100.00
23899;BME280;20544;50.018;20.010;2022-10-31T07:35:26;99355.83;;;16.42;100.00
23899;BME280;20544;50.018;20.010;2022-10-31T07:38:44;99354.16;;;16.27;100.00
23899;BME280;20544;50.018;20.010;2022-10-31T07:42:06;99356.65;;;16.09;100.00
23899;BME280;20544;50.018;20.010;2022-10-31T07:45:24;99350.84;;;15.92;100.00
23899;BME280;20544;50.018;20.010;2022-10-31T07:48:59;99357.43;;;15.89;100.00
23899;BME280;20544;50.018;20.010;2022-10-31T07:52:35;99366.17;;;15.63;100.00
23899;BME280;20544;50.018;20.010;2022-10-31T07:56:17;99359.98;;;15.56;100.00
23899;BME280;20544;50.018;20.010;2022-10-31T07:59:49;99359.05;;;15.35;100.00
23899;BME280;20544;50.018;20.010;2022-10-31T08:03:09;99354.48;;;15.22;100.00
23899;BME280;20544;50.018;20.010;2022-10-31T08:06:50;99355.50;;;15.21;100.00
23899;BME280;20544;50.018;20.010;2022-10-31T08:10:11;99360.13;;;15.41;100.00
23899;BME280;20544;50.018;20.010;2022-10-31T08:13:27;99357.88;;;15.44;100.00
23899;BME280;20544;50.018;20.010;2022-10-31T08:16:44;99368.05;;;15.76;100.00
23899;BME280;20544;50.018;20.010;2022-10-31T08:20:04;99370.80;;;15.89;100.00
23899;BME280;20544;50.018;20.010;2022-10-31T08:23:26;99372.63;;;15.89;100.00
23899;BME280;20544;50.018;20.010;2022-10-31T08:26:46;99363.20;;;15.93;100.00
23899;BME280;20544;50.018;20.010;2022-10-31T08:30:02;99362.99;;;16.01;100.00
23899;BME280;20544;50.018;20.010;2022-10-31T08:33:21;99364.64;;;16.02;100.00
23899;BME280;20544;50.018;20.010;2022-10-31T08:36:55;99371.64;;;16.10;100.00
23899;BME280;20544;50.018;20.010;2022-10-31T08:40:14;99359.92;;;16.11;100.00
23899;BME280;20544;50.018;20.010;2022-10-31T08:43:33;99367.16;;;16.24;100.00
23899;BME280;20544;50.018;20.010;2022-10-31T08:46:50;99360.14;;;16.36;100.00
23899;BME280;20544;50.018;20.010;2022-10-31T08:50:10;99364.08;;;16.54;100.00
23899;BME280;20544;50.018;20.010;2022-10-31T08:53:27;99359.10;;;16.71;100.00
23899;BME280;20544;50.018;20.010;2022-10-31T08:57:01;99355.98;;;16.87;100.00
23899;BME280;20544;50.018;20.010;2022-10-31T09:00:23;99358.08;;;16.98;100.00
23899;BME280;20544;50.018;20.010;2022-10-31T09:03:47;99354.93;;;17.08;100.00
23899;BME280;20544;50.018;20.010;2022-10-31T09:07:08;99355.92;;;17.21;100.00
23899;BME280;20544;50.018;20.010;2022-10-31T09:10:34;99358.38;;;17.29;100.00
23899;BME280;20544;50.018;20.010;2022-10-31T09:13:55;99361.03;;;17.36;100.00
23899;BME280;20544;50.018;20.010;2022-10-31T09:23:52;99362.13;;;17.73;100.00
23899;BME280;20544;50.018;20.010;2022-10-31T09:27:09;99364.29;;;17.90;96.83
23899;BME280;20544;50.018;20.010;2022-10-31T09:30:29;99359.91;;;18.02;94.72
23899;BME280;20544;50.018;20.010;2022-10-31T09:33:47;99363.70;;;18.20;93.28
23899;BME280;20544;50.018;20.010;2022-10-31T09:38:20;99360.22;;;18.45;92.57
23899;BME280;20544;50.018;20.010;2022-10-31T09:41:48;99364.26;;;18.54;91.13
23899;BME280;20544;50.018;20.010;2022-10-31T09:45:14;99368.03;;;18.71;95.16
23899;BME280;20544;50.018;20.010;2022-10-31T09:48:55;99364.45;;;18.78;91.78
23899;BME280;20544;50.018;20.010;2022-10-31T09:52:39;99369.23;;;19.01;90.31
23899;BME280;20544;50.018;20.010;2022-10-31T09:56:00;99373.63;;;19.14;88.02
23899;BME280;20544;50.018;20.010;2022-10-31T09:59:24;99375.57;;;19.25;89.61
23899;BME280;20544;50.018;20.010;2022-10-31T10:02:46;99380.36;;;19.42;88.77
23899;BME280;20544;50.018;20.010;2022-10-31T10:06:09;99375.03;;;19.53;87.71
23899;BME280;20544;50.018;20.010;2022-10-31T10:09:29;99382.94;;;19.67;85.14
23899;BME280;20544;50.018;20.010;2022-10-31T10:13:08;99384.42;;;19.81;86.34
23899;BME280;20544;50.018;20.010;2022-10-31T10:16:47;99381.91;;;19.98;85.10
23899;BME280;20544;50.018;20.010;2022-10-31T10:23:36;99386.25;;;19.99;80.30
23899;BME280;20544;50.018;20.010;2022-10-31T10:27:03;99385.23;;;20.12;81.69
23899;BME280;20544;50.018;20.010;2022-10-31T10:30:26;99377.07;;;20.19;81.29
23899;BME280;20544;50.018;20.010;2022-10-31T10:33:51;99380.13;;;20.23;80.67
23899;BME280;20544;50.018;20.010;2022-10-31T10:37:42;99375.19;;;20.19;79.42
23899;BME280;20544;50.018;20.010;2022-10-31T10:41:03;99377.07;;;20.19;80.46
23899;BME280;20544;50.018;20.010;2022-10-31T10:44:22;99370.72;;;20.13;78.03
23899;BME280;20544;50.018;20.010;2022-10-31T10:47:56;99377.86;;;20.08;78.35
23899;BME280;20544;50.018;20.010;2022-10-31T10:54:45;99361.70;;;20.08;78.16
23899;BME280;20544;50.018;20.010;2022-10-31T10:58:07;99366.73;;;20.04;79.55
23899;BME280;20544;50.018;20.010;2022-10-31T11:01:26;99362.52;;;20.08;80.73
23899;BME280;20544;50.018;20.010;2022-10-31T11:04:47;99366.49;;;20.06;80.63
23899;BME280;20544;50.018;20.010;2022-10-31T11:08:07;99356.33;;;20.08;81.89
23899;BME280;20544;50.018;20.010;2022-10-31T11:11:27;99357.94;;;20.09;84.58
23899;BME280;20544;50.018;20.010;2022-10-31T11:14:58;99348.38;;;20.13;84.18
23899;BME280;20544;50.018;20.010;2022-10-31T11:18:19;99356.81;;;20.16;86.28
23899;BME280;20544;50.018;20.010;2022-10-31T11:21:38;99347.09;;;20.15;82.85
23899;BME280;20544;50.018;20.010;2022-10-31T11:24:57;99344.97;;;20.17;83.14
23899;BME280;20544;50.018;20.010;2022-10-31T11:28:15;99348.49;;;20.18;84.92
23899;BME280;20544;50.018;20.010;2022-10-31T11:31:32;99346.16;;;20.22;82.33
23899;BME280;20544;50.018;20.010;2022-10-31T11:34:49;99338.09;;;20.22;81.62
23899;BME280;20544;50.018;20.010;2022-10-31T11:38:07;99338.33;;;20.20;84.66
23899;BME280;20544;50.018;20.010;2022-10-31T11:41:35;99335.03;;;20.18;81.88
23899;BME280;20544;50.018;20.010;2022-10-31T11:44:53;99330.45;;;20.18;81.27
23899;BME280;20544;50.018;20.010;2022-10-31T11:48:18;99338.53;;;20.18;81.55
23899;BME280;20544;50.018;20.010;2022-10-31T11:51:37;99335.84;;;20.18;79.84
23899;BME280;20544;50.018;20.010;2022-10-31T11:54:55;99329.41;;;20.19;79.38
23899;BME280;20544;50.018;20.010;2022-10-31T11:58:25;99330.57;;;20.12;80.67
23899;BME280;20544;50.018;20.010;2022-10-31T12:08:48;99325.88;;;20.07;83.13
23899;BME280;20544;50.018;20.010;2022-10-31T12:12:30;99320.73;;;20.06;84.50
23899;BME280;20544;50.018;20.010;2022-10-31T12:16:12;99313.70;;;20.04;85.19
23899;BME280;20544;50.018;20.010;2022-10-31T12:22:59;99313.94;;;20.03;81.94
23899;BME280;20544;50.018;20.010;2022-10-31T12:26:22;99316.03;;;20.01;83.60
23899;BME280;20544;50.018;20.010;2022-10-31T12:38:21;99303.97;;;20.03;82.02
23899;BME280;20544;50.018;20.010;2022-10-31T12:42:00;99299.42;;;20.04;82.69
23899;BME280;20544;50.018;20.010;2022-10-31T12:49:16;99295.69;;;20.05;82.57
23899;BME280;20544;50.018;20.010;2022-10-31T12:52:59;99295.45;;;20.07;81.96
23899;BME280;20544;50.018;20.010;2022-10-31T12:56:32;99290.88;;;20.07;82.19
23899;BME280;20544;50.018;20.010;2022-10-31T12:59:59;99298.71;;;20.09;82.79
23899;BME280;20544;50.018;20.010;2022-10-31T13:03:35;99291.23;;;20.11;81.81
23899;BME280;20544;50.018;20.010;2022-10-31T13:07:02;99287.94;;;20.09;82.54
23899;BME280;20544;50.018;20.010;2022-10-31T13:10:29;99291.92;;;20.06;85.04
23899;BME280;20544;50.018;20.010;2022-10-31T13:13:57;99287.02;;;20.03;87.00
23899;BME280;20544;50.018;20.010;2022-10-31T13:17:24;99289.59;;;19.98;86.46
23899;BME280;20544;50.018;20.010;2022-10-31T13:20:52;99288.98;;;19.96;84.30
23899;BME280;20544;50.018;20.010;2022-10-31T13:24:16;99293.56;;;19.95;83.89
23899;BME280;20544;50.018;20.010;2022-10-31T13:27:41;99288.98;;;19.96;83.71
23899;BME280;20544;50.018;20.010;2022-10-31T13:31:06;99288.98;;;19.96;83.69
23899;BME280;20544;50.018;20.010;2022-10-31T13:34:30;99286.30;;;19.96;82.55
23899;BME280;20544;50.018;20.010;2022-10-31T13:37:51;99284.65;;;19.95;83.38
23899;BME280;20544;50.018;20.010;2022-10-31T13:41:32;99288.38;;;19.94;83.53
23899;BME280;20544;50.018;20.010;2022-10-31T13:44:55;99280.79;;;19.91;85.69
23899;BME280;20544;50.018;20.010;2022-10-31T13:48:39;99285.20;;;19.85;85.36
23899;BME280;20544;50.018;20.010;2022-10-31T13:52:17;99278.50;;;19.76;88.78
23899;BME280;20544;50.018;20.010;2022-10-31T13:55:46;99275.92;;;19.69;86.85
23899;BME280;20544;50.018;20.010;2022-10-31T13:59:20;99285.48;;;19.65;88.93
23899;BME280;20544;50.018;20.010;2022-10-31T14:02:46;99290.49;;;19.61;89.47
23899;BME280;20544;50.018;20.010;2022-10-31T14:06:12;99275.14;;;19.50;91.23
23899;BME280;20544;50.018;20.010;2022-10-31T14:09:37;99280.63;;;19.43;91.27
23899;BME280;20544;50.018;20.010;2022-10-31T14:13:05;99267.24;;;19.36;88.88
23899;BME280;20544;50.018;20.010;2022-10-31T14:16:27;99266.00;;;19.39;86.98
23899;BME280;20544;50.018;20.010;2022-10-31T14:24:15;99269.94;;;19.36;92.35
23899;BME280;20544;50.018;20.010;2022-10-31T14:36:48;99266.63;;;19.04;95.57
23899;BME280;20544;50.018;20.010;2022-10-31T14:40:35;99262.45;;;18.89;95.41
23899;BME280;20544;50.018;20.010;2022-10-31T14:44:11;99262.36;;;18.78;96.51
23899;BME280;20544;50.018;20.010;2022-10-31T14:47:43;99259.53;;;18.72;99.16
23899;BME280;20544;50.018;20.010;2022-10-31T14:51:19;99254.60;;;18.51;97.91
23899;BME280;20544;50.018;20.010;2022-10-31T14:54:40;99258.06;;;18.33;98.67
23899;BME280;20544;50.018;20.010;2022-10-31T14:58:03;99252.23;;;18.17;99.74
23899;BME280;20544;50.018;20.010;2022-10-31T15:01:30;99252.56;;;18.02;100.00
23899;BME280;20544;50.018;20.010;2022-10-31T15:05:05;99254.28;;;17.90;100.00
23899;BME280;20544;50.018;20.010;2022-10-31T15:09:32;99245.35;;;17.71;100.00
23899;BME280;20544;50.018;20.010;2022-10-31T15:13:17;99256.16;;;17.57;100.00
23899;BME280;20544;50.018;20.010;2022-10-31T15:16:45;99248.64;;;17.41;100.00
23899;BME280;20544;50.018;20.010;2022-10-31T15:20:18;99253.67;;;17.24;100.00
23899;BME280;20544;50.018;20.010;2022-10-31T15:23:41;99249.22;;;17.04;100.00
23899;BME280;20544;50.018;20.010;2022-10-31T15:27:14;99245.96;;;16.89;100.00
23899;BME280;20544;50.018;20.010;2022-10-31T15:30:36;99246.41;;;16.79;100.00
23899;BME280;20544;50.018;20.010;2022-10-31T15:33:58;99244.97;;;16.70;100.00
23899;BME280;20544;50.018;20.010;2022-10-31T15:37:23;99240.08;;;16.60;100.00
23899;BME280;20544;50.018;20.010;2022-10-31T15:40:40;99241.73;;;16.54;100.00
23899;BME280;20544;50.018;20.010;2022-10-31T15:47:26;99247.33;;;16.26;100.00
23899;BME280;20544;50.018;20.010;2022-10-31T15:50:48;99256.62;;;16.16;100.00
23899;BME280;20544;50.018;20.010;2022-10-31T15:54:14;99253.31;;;16.01;100.00
23899;BME280;20544;50.018;20.010;2022-10-31T15:57:38;99253.32;;;15.94;100.00
23899;BME280;20544;50.018;20.010;2022-10-31T16:01:02;99259.91;;;15.85;100.00
23899;BME280;20544;50.018;20.010;2022-10-31T16:04:24;99254.72;;;15.77;100.00
23899;BME280;20544;50.018;20.010;2022-10-31T16:07:47;99249.56;;;15.68;100.00
23899;BME280;20544;50.018;20.010;2022-10-31T16:11:18;99249.14;;;15.58;100.00
23899;BME280;20544;50.018;20.010;2022-10-31T16:14:46;99257.13;;;15.45;100.00
23899;BME280;20544;50.018;20.010;2022-10-31T16:18:04;99254.41;;;15.31;100.00
23899;BME280;20544;50.018;20.010;2022-10-31T16:21:29;99249.27;;;15.23;100.00
23899;BME280;20544;50.018;20.010;2022-10-31T16:24:53;99261.98;;;15.14;100.00
23899;BME280;20544;50.018;20.010;2022-10-31T16:28:18;99261.33;;;15.06;100.00
23899;BME280;20544;50.018;20.010;2022-10-31T16:31:40;99262.13;;;14.99;100.00
23899;BME280;20544;50.018;20.010;2022-10-31T16:35:16;99262.08;;;14.93;100.00
23899;BME280;20544;50.018;20.010;2022-10-31T16:38:51;99270.07;;;14.86;100.00
23899;BME280;20544;50.018;20.010;2022-10-31T16:42:20;99262.84;;;14.80;100.00
23899;BME280;20544;50.018;20.010;2022-10-31T16:45:55;99262.13;;;14.64;100.00
23899;BME280;20544;50.018;20.010;2022-10-31T16:49:14;99254.27;;;14.56;100.00
23899;BME280;20544;50.018;20.010;2022-10-31T16:52:34;99260.59;;;14.48;100.00
23899;BME280;20544;50.018;20.010;2022-10-31T16:55:55;99261.38;;;14.42;100.00
23899;BME280;20544;50.018;20.010;2022-10-31T16:59:18;99261.91;;;14.31;100.00
23899;BME280;20544;50.018;20.010;2022-10-31T17:02:40;99267.59;;;14.21;100.00
23899;BME280;20544;50.018;20.010;2022-10-31T17:06:09;99261.17;;;14.15;100.00
23899;BME280;20544;50.018;20.010;2022-10-31T17:09:48;99266.83;;;14.05;100.00
23899;BME280;20544;50.018;20.010;2022-10-31T17:13:25;99255.31;;;13.98;100.00
23899;BME280;20544;50.018;20.010;2022-10-31T17:16:46;99262.79;;;13.88;100.00
23899;BME280;20544;50.018;20.010;2022-10-31T17:20:21;99259.67;;;13.84;100.00
23899;BME280;20544;50.018;20.010;2022-10-31T17:23:42;99260.44;;;13.78;100.00
23899;BME280;20544;50.018;20.010;2022-10-31T17:27:22;99260.25;;;13.58;100.00
23899;BME280;20544;50.018;20.010;2022-10-31T17:30:45;99258.73;;;13.49;100.00
23899;BME280;20544;50.018;20.010;2022-10-31T17:34:06;99256.57;;;13.37;100.00
23899;BME280;20544;50.018;20.010;2022-10-31T17:37:40;99261.33;;;13.27;100.00
23899;BME280;20544;50.018;20.010;2022-10-31T17:41:09;99256.84;;;13.27;100.00
23899;BME280;20544;50.018;20.010;2022-10-31T17:44:27;99259.80;;;13.18;100.00
23899;BME280;20544;50.018;20.010;2022-10-31T17:47:52;99254.56;;;13.09;100.00
23899;BME280;20544;50.018;20.010;2022-10-31T17:51:14;99251.45;;;13.06;100.00
23899;BME280;20544;50.018;20.010;2022-10-31T17:54:39;99258.43;;;13.07;100.00
23899;BME280;20544;50.018;20.010;2022-10-31T17:58:08;99257.55;;;13.00;100.00
23899;BME280;20544;50.018;20.010;2022-10-31T18:01:36;99258.84;;;12.89;100.00
23899;BME280;20544;50.018;20.010;2022-10-31T18:04:57;99253.97;;;12.92;100.00
23899;BME280;20544;50.018;20.010;2022-10-31T18:12:00;99256.45;;;12.79;100.00
23899;BME280;20544;50.018;20.010;2022-10-31T18:15:23;99256.07;;;12.82;100.00
23899;BME280;20544;50.018;20.010;2022-10-31T18:18:56;99255.53;;;12.72;100.00
23899;BME280;20544;50.018;20.010;2022-10-31T18:22:16;99254.73;;;12.56;100.00
23899;BME280;20544;50.018;20.010;2022-10-31T18:25:37;99256.54;;;12.56;100.00
23899;BME280;20544;50.018;20.010;2022-10-31T18:29:02;99252.22;;;12.40;100.00
23899;BME280;20544;50.018;20.010;2022-10-31T18:32:19;99250.47;;;12.32;100.00
23899;BME280;20544;50.018;20.010;2022-10-31T18:35:48;99247.63;;;12.19;100.00
23899;BME280;20544;50.018;20.010;2022-10-31T18:39:05;99245.38;;;12.07;100.00
23899;BME280;20544;50.018;20.010;2022-10-31T18:42:28;99241.72;;;12.08;100.00
23899;BME280;20544;50.018;20.010;2022-10-31T18:45:48;99245.10;;;12.02;100.00
23899;BME280;20544;50.018;20.010;2022-10-31T18:49:12;99238.59;;;12.05;100.00
23899;BME280;20544;50.018;20.010;2022-10-31T18:52:38;99239.50;;;11.97;100.00
23899;BME280;20544;50.018;20.010;2022-10-31T18:55:54;99240.97;;;12.00;100.00
23899;BME280;20544;50.018;20.010;2022-10-31T18:59:13;99237.31;;;12.01;100.00
23899;BME280;20544;50.018;20.010;2022-10-31T19:02:33;99236.59;;;12.07;100.00
23899;BME280;20544;50.018;20.010;2022-10-31T19:06:05;99233.00;;;12.00;100.00
23899;BME280;20544;50.018;20.010;2022-10-31T19:09:30;99239.00;;;11.93;100.00
23899;BME280;20544;50.018;20.010;2022-10-31T19:12:56;99233.92;;;11.84;100.00